sensor_id;sensor_type;location;lat;lon;timestamp;P1;durP1;ratioP1;P2;durP2;ratioP2
19877;SDS011;10101;52.204;9.910;2023-08-12T00:02:09;3.40;;;2.40;;
19877;SDS011;10101;52.204;9.910;2023-08-12T00:04:36;4.97;;;2.80;;
19877;SDS011;10101;52.204;9.910;2023-08-12T00:07:03;5.53;;;2.38;;
19877;SDS011;10101;52.204;9.910;2023-08-12T00:09:30;5.28;;;2.60;;
19877;SDS011;10101;52.204;9.910;2023-08-12T00:11:58;4.43;;;2.20;;
19877;SDS011;10101;52.204;9.910;2023-08-12T00:14:24;4.28;;;2.60;;
19877;SDS011;10101;52.204;9.910;2023-08-12T00:16:51;6.75;;;2.60;;
19877;SDS011;10101;52.204;9.910;2023-08-12T00:19:18;3.65;;;2.30;;
19877;SDS011;10101;52.204;9.910;2023-08-12T00:21:45;4.65;;;2.35;;
19877;SDS011;10101;52.204;9.910;2023-08-12T00:24:11;4.50;;;2.70;;
19877;SDS011;10101;52.204;9.910;2023-08-12T00:26:38;3.70;;;2.78;;
19877;SDS011;10101;52.204;9.910;2023-08-12T00:29:06;6.32;;;2.88;;
19877;SDS011;10101;52.204;9.910;2023-08-12T00:31:33;5.03;;;3.13;;
19877;SDS011;10101;52.204;9.910;2023-08-12T00:33:59;6.50;;;3.35;;
19877;SDS011;10101;52.204;9.910;2023-08-12T00:36:26;6.57;;;2.85;;
19877;SDS011;10101;52.204;9.910;2023-08-12T00:38:53;9.65;;;2.80;;
19877;SDS011;10101;52.204;9.910;2023-08-12T00:41:19;3.67;;;2.50;;
19877;SDS011;10101;52.204;9.910;2023-08-12T00:43:46;5.65;;;2.63;;
19877;SDS011;10101;52.204;9.910;2023-08-12T00:46:14;8.90;;;2.70;;
19877;SDS011;10101;52.204;9.910;2023-08-12T00:48:41;5.97;;;2.92;;
19877;SDS011;10101;52.204;9.910;2023-08-12T00:51:08;5.43;;;2.55;;
19877;SDS011;10101;52.204;9.910;2023-08-12T00:53:35;4.10;;;2.58;;
19877;SDS011;10101;52.204;9.910;2023-08-12T00:56:02;9.32;;;2.95;;
19877;SDS011;10101;52.204;9.910;2023-08-12T00:58:29;4.45;;;2.63;;
19877;SDS011;10101;52.204;9.910;2023-08-12T01:00:56;4.45;;;2.88;;
19877;SDS011;10101;52.204;9.910;2023-08-12T01:03:25;5.07;;;2.50;;
19877;SDS011;10101;52.204;9.910;2023-08-12T01:05:52;4.75;;;3.00;;
19877;SDS011;10101;52.204;9.910;2023-08-12T01:08:19;8.73;;;2.72;;
19877;SDS011;10101;52.204;9.910;2023-08-12T01:10:48;4.95;;;2.58;;
19877;SDS011;10101;52.204;9.910;2023-08-12T01:13:24;4.53;;;2.60;;
19877;SDS011;10101;52.204;9.910;2023-08-12T01:16:00;6.97;;;2.70;;
19877;SDS011;10101;52.204;9.910;2023-08-12T01:18:31;4.97;;;2.50;;
19877;SDS011;10101;52.204;9.910;2023-08-12T01:20:58;7.28;;;2.63;;
19877;SDS011;10101;52.204;9.910;2023-08-12T01:23:30;7.78;;;2.60;;
19877;SDS011;10101;52.204;9.910;2023-08-12T01:25:56;4.05;;;2.50;;
19877;SDS011;10101;52.204;9.910;2023-08-12T01:28:23;4.88;;;2.63;;
19877;SDS011;10101;52.204;9.910;2023-08-12T01:30:51;5.55;;;2.33;;
19877;SDS011;10101;52.204;9.910;2023-08-12T01:33:24;4.80;;;2.60;;
19877;SDS011;10101;52.204;9.910;2023-08-12T01:35:58;6.68;;;3.03;;
19877;SDS011;10101;52.204;9.910;2023-08-12T01:38:34;5.70;;;2.65;;
19877;SDS011;10101;52.204;9.910;2023-08-12T01:41:04;9.43;;;2.40;;
19877;SDS011;10101;52.204;9.910;2023-08-12T01:43:32;4.18;;;2.40;;
19877;SDS011;10101;52.204;9.910;2023-08-12T01:45:59;4.55;;;2.30;;
19877;SDS011;10101;52.204;9.910;2023-08-12T01:48:26;6.38;;;2.60;;
19877;SDS011;10101;52.204;9.910;2023-08-12T01:50:53;4.50;;;2.72;;
19877;SDS011;10101;52.204;9.910;2023-08-12T01:53:20;3.72;;;2.58;;
19877;SDS011;10101;52.204;9.910;2023-08-12T01:55:49;4.45;;;2.83;;
19877;SDS011;10101;52.204;9.910;2023-08-12T01:58:16;4.00;;;2.65;;
19877;SDS011;10101;52.204;9.910;2023-08-12T02:00:43;10.73;;;2.92;;
19877;SDS011;10101;52.204;9.910;2023-08-12T02:03:09;4.68;;;2.70;;
19877;SDS011;10101;52.204;9.910;2023-08-12T02:05:36;5.13;;;2.72;;
19877;SDS011;10101;52.204;9.910;2023-08-12T02:08:03;5.35;;;2.92;;
19877;SDS011;10101;52.204;9.910;2023-08-12T02:10:30;5.30;;;2.78;;
19877;SDS011;10101;52.204;9.910;2023-08-12T02:12:58;6.50;;;2.70;;
19877;SDS011;10101;52.204;9.910;2023-08-12T02:15:25;7.05;;;2.83;;
19877;SDS011;10101;52.204;9.910;2023-08-12T02:17:52;4.10;;;2.53;;
19877;SDS011;10101;52.204;9.910;2023-08-12T02:20:18;3.92;;;2.55;;
19877;SDS011;10101;52.204;9.910;2023-08-12T02:22:45;5.28;;;2.78;;
19877;SDS011;10101;52.204;9.910;2023-08-12T02:25:12;4.13;;;2.60;;
19877;SDS011;10101;52.204;9.910;2023-08-12T02:27:38;4.28;;;2.55;;
19877;SDS011;10101;52.204;9.910;2023-08-12T02:30:08;3.03;;;2.45;;
19877;SDS011;10101;52.204;9.910;2023-08-12T02:32:35;3.88;;;2.33;;
19877;SDS011;10101;52.204;9.910;2023-08-12T02:35:02;3.38;;;2.22;;
19877;SDS011;10101;52.204;9.910;2023-08-12T02:37:29;3.00;;;2.05;;
19877;SDS011;10101;52.204;9.910;2023-08-12T02:39:57;2.38;;;2.15;;
19877;SDS011;10101;52.204;9.910;2023-08-12T02:42:23;3.17;;;2.40;;
19877;SDS011;10101;52.204;9.910;2023-08-12T02:44:50;4.78;;;2.50;;
19877;SDS011;10101;52.204;9.910;2023-08-12T02:47:18;4.25;;;2.20;;
19877;SDS011;10101;52.204;9.910;2023-08-12T02:49:45;5.05;;;2.50;;
19877;SDS011;10101;52.204;9.910;2023-08-12T02:52:12;6.43;;;2.30;;
19877;SDS011;10101;52.204;9.910;2023-08-12T02:54:39;9.63;;;2.40;;
19877;SDS011;10101;52.204;9.910;2023-08-12T02:57:06;4.93;;;2.17;;
19877;SDS011;10101;52.204;9.910;2023-08-12T02:59:32;4.93;;;2.22;;
19877;SDS011;10101;52.204;9.910;2023-08-12T03:01:59;12.45;;;2.72;;
19877;SDS011;10101;52.204;9.910;2023-08-12T03:04:29;3.92;;;3.10;;
19877;SDS011;10101;52.204;9.910;2023-08-12T03:06:56;6.18;;;3.10;;
19877;SDS011;10101;52.204;9.910;2023-08-12T03:09:22;3.95;;;2.75;;
19877;SDS011;10101;52.204;9.910;2023-08-12T03:11:49;3.75;;;2.85;;
19877;SDS011;10101;52.204;9.910;2023-08-12T03:14:16;5.60;;;2.65;;
19877;SDS011;10101;52.204;9.910;2023-08-12T03:16:43;7.30;;;2.75;;
19877;SDS011;10101;52.204;9.910;2023-08-12T03:19:09;5.03;;;2.95;;
19877;SDS011;10101;52.204;9.910;2023-08-12T03:21:37;5.35;;;2.95;;
19877;SDS011;10101;52.204;9.910;2023-08-12T03:24:04;5.20;;;3.10;;
19877;SDS011;10101;52.204;9.910;2023-08-12T03:26:31;6.87;;;2.97;;
19877;SDS011;10101;52.204;9.910;2023-08-12T03:28:58;4.07;;;2.80;;
19877;SDS011;10101;52.204;9.910;2023-08-12T03:31:25;5.85;;;2.92;;
19877;SDS011;10101;52.204;9.910;2023-08-12T03:33:52;10.53;;;3.00;;
19877;SDS011;10101;52.204;9.910;2023-08-12T03:36:18;4.35;;;2.35;;
19877;SDS011;10101;52.204;9.910;2023-08-12T03:38:46;3.38;;;2.90;;
19877;SDS011;10101;52.204;9.910;2023-08-12T03:41:13;7.15;;;2.90;;
19877;SDS011;10101;52.204;9.910;2023-08-12T03:43:40;5.47;;;2.60;;
19877;SDS011;10101;52.204;9.910;2023-08-12T03:46:06;4.45;;;2.78;;
19877;SDS011;10101;52.204;9.910;2023-08-12T03:48:33;6.53;;;2.65;;
19877;SDS011;10101;52.204;9.910;2023-08-12T03:51:00;5.07;;;2.80;;
19877;SDS011;10101;52.204;9.910;2023-08-12T03:53:26;4.32;;;2.65;;
19877;SDS011;10101;52.204;9.910;2023-08-12T03:55:54;4.82;;;2.67;;
19877;SDS011;10101;52.204;9.910;2023-08-12T03:58:22;4.82;;;2.75;;
19877;SDS011;10101;52.204;9.910;2023-08-12T04:00:49;5.27;;;2.93;;
19877;SDS011;10101;52.204;9.910;2023-08-12T04:03:16;4.53;;;3.20;;
19877;SDS011;10101;52.204;9.910;2023-08-12T04:05:49;9.93;;;2.80;;
19877;SDS011;10101;52.204;9.910;2023-08-12T04:08:17;3.75;;;2.88;;
19877;SDS011;10101;52.204;9.910;2023-08-12T04:10:45;4.97;;;3.13;;
19877;SDS011;10101;52.204;9.910;2023-08-12T04:13:14;7.85;;;2.60;;
19877;SDS011;10101;52.204;9.910;2023-08-12T04:15:41;3.40;;;2.60;;
19877;SDS011;10101;52.204;9.910;2023-08-12T04:18:08;5.43;;;2.70;;
19877;SDS011;10101;52.204;9.910;2023-08-12T04:20:34;5.18;;;2.80;;
19877;SDS011;10101;52.204;9.910;2023-08-12T04:23:03;5.93;;;2.63;;
19877;SDS011;10101;52.204;9.910;2023-08-12T04:25:30;5.50;;;2.40;;
19877;SDS011;10101;52.204;9.910;2023-08-12T04:27:56;5.43;;;2.67;;
19877;SDS011;10101;52.204;9.910;2023-08-12T04:30:24;6.38;;;2.60;;
19877;SDS011;10101;52.204;9.910;2023-08-12T04:32:51;4.40;;;2.80;;
19877;SDS011;10101;52.204;9.910;2023-08-12T04:35:18;4.80;;;3.10;;
19877;SDS011;10101;52.204;9.910;2023-08-12T04:37:44;5.13;;;2.85;;
19877;SDS011;10101;52.204;9.910;2023-08-12T04:40:11;10.17;;;2.60;;
19877;SDS011;10101;52.204;9.910;2023-08-12T04:42:38;5.03;;;2.40;;
19877;SDS011;10101;52.204;9.910;2023-08-12T04:45:05;5.50;;;2.73;;
19877;SDS011;10101;52.204;9.910;2023-08-12T04:47:34;5.00;;;2.87;;
19877;SDS011;10101;52.204;9.910;2023-08-12T04:50:02;3.87;;;2.63;;
19877;SDS011;10101;52.204;9.910;2023-08-12T04:52:29;3.87;;;2.80;;
19877;SDS011;10101;52.204;9.910;2023-08-12T04:54:56;4.75;;;2.90;;
19877;SDS011;10101;52.204;9.910;2023-08-12T04:57:22;4.63;;;2.88;;
19877;SDS011;10101;52.204;9.910;2023-08-12T04:59:49;6.22;;;3.25;;
19877;SDS011;10101;52.204;9.910;2023-08-12T05:02:16;3.97;;;2.88;;
19877;SDS011;10101;52.204;9.910;2023-08-12T05:04:47;4.55;;;2.88;;
19877;SDS011;10101;52.204;9.910;2023-08-12T05:07:14;5.25;;;2.80;;
19877;SDS011;10101;52.204;9.910;2023-08-12T05:09:41;5.07;;;2.88;;
19877;SDS011;10101;52.204;9.910;2023-08-12T05:12:09;4.13;;;3.25;;
19877;SDS011;10101;52.204;9.910;2023-08-12T05:14:36;5.72;;;2.95;;
19877;SDS011;10101;52.204;9.910;2023-08-12T05:17:03;5.55;;;2.90;;
19877;SDS011;10101;52.204;9.910;2023-08-12T05:19:30;2.65;;;2.45;;
19877;SDS011;10101;52.204;9.910;2023-08-12T05:21:58;4.40;;;3.03;;
19877;SDS011;10101;52.204;9.910;2023-08-12T05:24:25;3.30;;;2.53;;
19877;SDS011;10101;52.204;9.910;2023-08-12T05:26:51;6.10;;;3.03;;
19877;SDS011;10101;52.204;9.910;2023-08-12T05:29:18;7.70;;;3.17;;
19877;SDS011;10101;52.204;9.910;2023-08-12T05:31:45;4.63;;;3.20;;
19877;SDS011;10101;52.204;9.910;2023-08-12T05:34:11;5.30;;;3.17;;
19877;SDS011;10101;52.204;9.910;2023-08-12T05:36:38;5.03;;;3.25;;
19877;SDS011;10101;52.204;9.910;2023-08-12T05:39:06;6.37;;;3.30;;
19877;SDS011;10101;52.204;9.910;2023-08-12T05:41:33;4.63;;;3.17;;
19877;SDS011;10101;52.204;9.910;2023-08-12T05:44:00;5.35;;;3.33;;
19877;SDS011;10101;52.204;9.910;2023-08-12T05:46:26;6.82;;;3.35;;
19877;SDS011;10101;52.204;9.910;2023-08-12T05:48:53;4.97;;;2.92;;
19877;SDS011;10101;52.204;9.910;2023-08-12T05:51:20;7.28;;;3.13;;
19877;SDS011;10101;52.204;9.910;2023-08-12T05:53:47;3.78;;;3.13;;
19877;SDS011;10101;52.204;9.910;2023-08-12T05:56:16;4.00;;;3.42;;
19877;SDS011;10101;52.204;9.910;2023-08-12T05:58:43;7.47;;;3.35;;
19877;SDS011;10101;52.204;9.910;2023-08-12T06:01:09;3.63;;;3.25;;
19877;SDS011;10101;52.204;9.910;2023-08-12T06:03:36;4.22;;;3.13;;
19877;SDS011;10101;52.204;9.910;2023-08-12T06:06:03;3.78;;;3.15;;
19877;SDS011;10101;52.204;9.910;2023-08-12T06:08:30;6.85;;;3.13;;
19877;SDS011;10101;52.204;9.910;2023-08-12T06:10:56;3.90;;;3.00;;
19877;SDS011;10101;52.204;9.910;2023-08-12T06:13:24;3.88;;;2.95;;
19877;SDS011;10101;52.204;9.910;2023-08-12T06:15:51;4.32;;;2.95;;
19877;SDS011;10101;52.204;9.910;2023-08-12T06:18:18;3.67;;;3.10;;
19877;SDS011;10101;52.204;9.910;2023-08-12T06:20:44;3.40;;;2.90;;
19877;SDS011;10101;52.204;9.910;2023-08-12T06:23:11;4.18;;;3.20;;
19877;SDS011;10101;52.204;9.910;2023-08-12T06:25:38;6.80;;;3.30;;
19877;SDS011;10101;52.204;9.910;2023-08-12T06:28:05;3.63;;;3.03;;
19877;SDS011;10101;52.204;9.910;2023-08-12T06:30:35;5.07;;;3.05;;
19877;SDS011;10101;52.204;9.910;2023-08-12T06:33:01;4.57;;;3.33;;
19877;SDS011;10101;52.204;9.910;2023-08-12T06:35:28;5.85;;;3.28;;
19877;SDS011;10101;52.204;9.910;2023-08-12T06:37:55;5.10;;;3.30;;
19877;SDS011;10101;52.204;9.910;2023-08-12T06:40:22;4.78;;;3.22;;
19877;SDS011;10101;52.204;9.910;2023-08-12T06:42:48;6.88;;;3.53;;
19877;SDS011;10101;52.204;9.910;2023-08-12T06:45:15;5.15;;;3.17;;
19877;SDS011;10101;52.204;9.910;2023-08-12T06:47:43;6.07;;;3.17;;
19877;SDS011;10101;52.204;9.910;2023-08-12T06:50:10;4.72;;;3.13;;
19877;SDS011;10101;52.204;9.910;2023-08-12T06:52:37;3.78;;;3.22;;
19877;SDS011;10101;52.204;9.910;2023-08-12T06:55:04;5.65;;;2.95;;
19877;SDS011;10101;52.204;9.910;2023-08-12T06:57:31;4.28;;;3.30;;
19877;SDS011;10101;52.204;9.910;2023-08-12T06:59:58;4.15;;;3.33;;
19877;SDS011;10101;52.204;9.910;2023-08-12T07:02:24;3.75;;;2.80;;
19877;SDS011;10101;52.204;9.910;2023-08-12T07:04:52;8.80;;;3.40;;
19877;SDS011;10101;52.204;9.910;2023-08-12T07:07:19;5.05;;;2.97;;
19877;SDS011;10101;52.204;9.910;2023-08-12T07:09:46;3.42;;;3.10;;
19877;SDS011;10101;52.204;9.910;2023-08-12T07:12:12;4.25;;;3.33;;
19877;SDS011;10101;52.204;9.910;2023-08-12T07:14:39;5.22;;;2.92;;
19877;SDS011;10101;52.204;9.910;2023-08-12T07:17:06;4.25;;;3.13;;
19877;SDS011;10101;52.204;9.910;2023-08-12T07:19:33;5.72;;;3.42;;
19877;SDS011;10101;52.204;9.910;2023-08-12T07:22:01;6.97;;;3.08;;
19877;SDS011;10101;52.204;9.910;2023-08-12T07:24:27;4.57;;;2.85;;
19877;SDS011;10101;52.204;9.910;2023-08-12T07:26:54;4.50;;;3.30;;
19877;SDS011;10101;52.204;9.910;2023-08-12T07:29:21;4.03;;;2.97;;
19877;SDS011;10101;52.204;9.910;2023-08-12T07:31:48;4.85;;;3.55;;
19877;SDS011;10101;52.204;9.910;2023-08-12T07:34:15;3.85;;;3.38;;
19877;SDS011;10101;52.204;9.910;2023-08-12T07:36:42;4.88;;;2.88;;
19877;SDS011;10101;52.204;9.910;2023-08-12T07:39:10;4.50;;;3.20;;
19877;SDS011;10101;52.204;9.910;2023-08-12T07:41:37;7.13;;;3.00;;
19877;SDS011;10101;52.204;9.910;2023-08-12T07:44:04;5.78;;;3.35;;
19877;SDS011;10101;52.204;9.910;2023-08-12T07:46:31;3.90;;;3.08;;
19877;SDS011;10101;52.204;9.910;2023-08-12T07:48:57;5.03;;;3.10;;
19877;SDS011;10101;52.204;9.910;2023-08-12T07:51:24;7.78;;;3.42;;
19877;SDS011;10101;52.204;9.910;2023-08-12T07:53:51;7.57;;;3.47;;
19877;SDS011;10101;52.204;9.910;2023-08-12T07:56:19;4.57;;;3.17;;
19877;SDS011;10101;52.204;9.910;2023-08-12T07:58:46;6.32;;;2.90;;
19877;SDS011;10101;52.204;9.910;2023-08-12T08:01:12;4.88;;;2.97;;
19877;SDS011;10101;52.204;9.910;2023-08-12T08:03:39;3.97;;;3.20;;
19877;SDS011;10101;52.204;9.910;2023-08-12T08:06:06;5.05;;;3.25;;
19877;SDS011;10101;52.204;9.910;2023-08-12T08:08:33;5.63;;;3.30;;
19877;SDS011;10101;52.204;9.910;2023-08-12T08:11:00;7.38;;;3.75;;
19877;SDS011;10101;52.204;9.910;2023-08-12T08:13:28;3.15;;;2.75;;
19877;SDS011;10101;52.204;9.910;2023-08-12T08:15:55;4.57;;;3.40;;
19877;SDS011;10101;52.204;9.910;2023-08-12T08:18:21;4.53;;;3.40;;
19877;SDS011;10101;52.204;9.910;2023-08-12T08:20:48;4.47;;;3.03;;
19877;SDS011;10101;52.204;9.910;2023-08-12T08:23:15;4.70;;;3.45;;
19877;SDS011;10101;52.204;9.910;2023-08-12T08:25:41;3.45;;;2.90;;
19877;SDS011;10101;52.204;9.910;2023-08-12T08:28:08;4.72;;;3.58;;
19877;SDS011;10101;52.204;9.910;2023-08-12T08:30:36;4.13;;;3.38;;
19877;SDS011;10101;52.204;9.910;2023-08-12T08:33:03;5.38;;;3.15;;
19877;SDS011;10101;52.204;9.910;2023-08-12T08:35:30;5.05;;;3.30;;
19877;SDS011;10101;52.204;9.910;2023-08-12T08:37:57;5.68;;;3.70;;
19877;SDS011;10101;52.204;9.910;2023-08-12T08:40:23;4.43;;;3.45;;
19877;SDS011;10101;52.204;9.910;2023-08-12T08:42:52;9.85;;;3.72;;
19877;SDS011;10101;52.204;9.910;2023-08-12T08:45:19;4.53;;;3.17;;
19877;SDS011;10101;52.204;9.910;2023-08-12T08:47:49;5.82;;;3.70;;
19877;SDS011;10101;52.204;9.910;2023-08-12T08:50:17;7.03;;;3.75;;
19877;SDS011;10101;52.204;9.910;2023-08-12T08:52:44;8.02;;;4.07;;
19877;SDS011;10101;52.204;9.910;2023-08-12T08:55:12;6.85;;;3.60;;
19877;SDS011;10101;52.204;9.910;2023-08-12T08:57:39;5.72;;;4.03;;
19877;SDS011;10101;52.204;9.910;2023-08-12T09:00:09;6.38;;;3.90;;
19877;SDS011;10101;52.204;9.910;2023-08-12T09:02:37;8.15;;;3.75;;
19877;SDS011;10101;52.204;9.910;2023-08-12T09:05:06;10.20;;;3.80;;
19877;SDS011;10101;52.204;9.910;2023-08-12T09:07:34;4.90;;;3.85;;
19877;SDS011;10101;52.204;9.910;2023-08-12T09:10:01;7.82;;;3.70;;
19877;SDS011;10101;52.204;9.910;2023-08-12T09:12:30;6.07;;;3.85;;
19877;SDS011;10101;52.204;9.910;2023-08-12T09:14:57;5.38;;;3.53;;
19877;SDS011;10101;52.204;9.910;2023-08-12T09:17:24;5.40;;;4.00;;
19877;SDS011;10101;52.204;9.910;2023-08-12T09:19:51;5.10;;;3.85;;
19877;SDS011;10101;52.204;9.910;2023-08-12T09:22:19;5.65;;;3.72;;
19877;SDS011;10101;52.204;9.910;2023-08-12T09:24:46;5.10;;;4.28;;
19877;SDS011;10101;52.204;9.910;2023-08-12T09:27:16;7.72;;;3.60;;
19877;SDS011;10101;52.204;9.910;2023-08-12T09:29:44;5.80;;;3.88;;
19877;SDS011;10101;52.204;9.910;2023-08-12T09:32:11;5.97;;;3.67;;
19877;SDS011;10101;52.204;9.910;2023-08-12T09:34:44;4.30;;;3.67;;
19877;SDS011;10101;52.204;9.910;2023-08-12T09:37:12;4.32;;;3.50;;
19877;SDS011;10101;52.204;9.910;2023-08-12T09:39:41;6.07;;;4.00;;
19877;SDS011;10101;52.204;9.910;2023-08-12T09:42:08;4.75;;;3.33;;
19877;SDS011;10101;52.204;9.910;2023-08-12T09:44:35;4.85;;;3.17;;
19877;SDS011;10101;52.204;9.910;2023-08-12T09:47:02;5.97;;;3.97;;
19877;SDS011;10101;52.204;9.910;2023-08-12T09:49:29;4.85;;;3.22;;
19877;SDS011;10101;52.204;9.910;2023-08-12T09:51:56;6.03;;;3.00;;
19877;SDS011;10101;52.204;9.910;2023-08-12T09:54:25;5.10;;;3.25;;
19877;SDS011;10101;52.204;9.910;2023-08-12T09:56:55;5.30;;;3.25;;
19877;SDS011;10101;52.204;9.910;2023-08-12T09:59:26;5.13;;;3.50;;
19877;SDS011;10101;52.204;9.910;2023-08-12T10:01:56;4.68;;;3.22;;
19877;SDS011;10101;52.204;9.910;2023-08-12T10:04:24;4.63;;;3.38;;
19877;SDS011;10101;52.204;9.910;2023-08-12T10:06:54;4.03;;;3.25;;
19877;SDS011;10101;52.204;9.910;2023-08-12T10:09:22;3.88;;;2.92;;
19877;SDS011;10101;52.204;9.910;2023-08-12T10:11:49;3.85;;;3.38;;
19877;SDS011;10101;52.204;9.910;2023-08-12T10:14:19;4.90;;;3.35;;
19877;SDS011;10101;52.204;9.910;2023-08-12T10:16:47;5.38;;;3.08;;
19877;SDS011;10101;52.204;9.910;2023-08-12T10:19:14;3.85;;;3.15;;
19877;SDS011;10101;52.204;9.910;2023-08-12T10:21:43;5.28;;;3.67;;
19877;SDS011;10101;52.204;9.910;2023-08-12T10:24:10;5.35;;;3.60;;
19877;SDS011;10101;52.204;9.910;2023-08-12T10:26:37;3.92;;;3.20;;
19877;SDS011;10101;52.204;9.910;2023-08-12T10:29:06;5.50;;;3.55;;
19877;SDS011;10101;52.204;9.910;2023-08-12T10:31:34;4.63;;;3.70;;
19877;SDS011;10101;52.204;9.910;2023-08-12T10:34:00;6.82;;;4.35;;
19877;SDS011;10101;52.204;9.910;2023-08-12T10:36:28;6.47;;;4.00;;
19877;SDS011;10101;52.204;9.910;2023-08-12T10:38:57;6.32;;;3.70;;
19877;SDS011;10101;52.204;9.910;2023-08-12T10:41:24;6.68;;;3.03;;
19877;SDS011;10101;52.204;9.910;2023-08-12T10:43:53;4.18;;;3.33;;
19877;SDS011;10101;52.204;9.910;2023-08-12T10:46:21;5.18;;;3.47;;
19877;SDS011;10101;52.204;9.910;2023-08-12T10:49:02;6.18;;;4.03;;
19877;SDS011;10101;52.204;9.910;2023-08-12T10:51:40;4.53;;;3.50;;
19877;SDS011;10101;52.204;9.910;2023-08-12T10:54:14;4.45;;;3.17;;
19877;SDS011;10101;52.204;9.910;2023-08-12T10:59:49;3.30;;;2.85;;
19877;SDS011;10101;52.204;9.910;2023-08-12T11:02:18;4.95;;;3.38;;
19877;SDS011;10101;52.204;9.910;2023-08-12T11:04:49;3.35;;;3.00;;
19877;SDS011;10101;52.204;9.910;2023-08-12T11:07:17;5.80;;;3.10;;
19877;SDS011;10101;52.204;9.910;2023-08-12T11:09:45;3.10;;;2.78;;
19877;SDS011;10101;52.204;9.910;2023-08-12T11:12:17;5.72;;;2.90;;
19877;SDS011;10101;52.204;9.910;2023-08-12T11:14:47;3.53;;;2.80;;
19877;SDS011;10101;52.204;9.910;2023-08-12T11:17:15;3.40;;;3.05;;
19877;SDS011;10101;52.204;9.910;2023-08-12T11:19:42;4.80;;;2.85;;
19877;SDS011;10101;52.204;9.910;2023-08-12T11:22:10;4.03;;;3.20;;
19877;SDS011;10101;52.204;9.910;2023-08-12T11:24:39;5.68;;;3.63;;
19877;SDS011;10101;52.204;9.910;2023-08-12T11:27:08;4.78;;;3.47;;
19877;SDS011;10101;52.204;9.910;2023-08-12T11:29:36;3.72;;;3.10;;
19877;SDS011;10101;52.204;9.910;2023-08-12T11:32:04;4.63;;;3.03;;
19877;SDS011;10101;52.204;9.910;2023-08-12T11:34:32;3.00;;;2.67;;
19877;SDS011;10101;52.204;9.910;2023-08-12T11:36:59;4.70;;;2.65;;
19877;SDS011;10101;52.204;9.910;2023-08-12T11:39:27;3.15;;;2.30;;
19877;SDS011;10101;52.204;9.910;2023-08-12T11:41:54;6.78;;;2.53;;
19877;SDS011;10101;52.204;9.910;2023-08-12T11:44:22;2.72;;;2.33;;
19877;SDS011;10101;52.204;9.910;2023-08-12T11:46:49;3.70;;;2.90;;
19877;SDS011;10101;52.204;9.910;2023-08-12T11:49:16;4.63;;;2.72;;
19877;SDS011;10101;52.204;9.910;2023-08-12T11:51:43;4.03;;;2.25;;
19877;SDS011;10101;52.204;9.910;2023-08-12T11:54:13;3.92;;;2.38;;
19877;SDS011;10101;52.204;9.910;2023-08-12T11:56:42;4.95;;;2.60;;
19877;SDS011;10101;52.204;9.910;2023-08-12T11:59:09;3.47;;;2.50;;
19877;SDS011;10101;52.204;9.910;2023-08-12T12:01:36;2.50;;;2.30;;
19877;SDS011;10101;52.204;9.910;2023-08-12T12:04:03;2.50;;;2.20;;
19877;SDS011;10101;52.204;9.910;2023-08-12T12:06:30;2.15;;;2.00;;
19877;SDS011;10101;52.204;9.910;2023-08-12T12:09:00;3.80;;;2.13;;
19877;SDS011;10101;52.204;9.910;2023-08-12T12:11:30;2.35;;;2.00;;
19877;SDS011;10101;52.204;9.910;2023-08-12T12:14:01;5.03;;;2.15;;
19877;SDS011;10101;52.204;9.910;2023-08-12T12:16:36;2.92;;;1.90;;
19877;SDS011;10101;52.204;9.910;2023-08-12T12:19:04;2.10;;;1.90;;
19877;SDS011;10101;52.204;9.910;2023-08-12T12:21:38;2.90;;;2.33;;
19877;SDS011;10101;52.204;9.910;2023-08-12T12:24:06;6.93;;;2.10;;
19877;SDS011;10101;52.204;9.910;2023-08-12T12:26:32;2.65;;;2.20;;
19877;SDS011;10101;52.204;9.910;2023-08-12T12:29:01;3.30;;;2.08;;
19877;SDS011;10101;52.204;9.910;2023-08-12T12:31:29;2.00;;;1.90;;
19877;SDS011;10101;52.204;9.910;2023-08-12T12:33:57;4.80;;;1.90;;
19877;SDS011;10101;52.204;9.910;2023-08-12T12:36:24;1.88;;;1.75;;
19877;SDS011;10101;52.204;9.910;2023-08-12T12:38:51;2.13;;;1.73;;
19877;SDS011;10101;52.204;9.910;2023-08-12T12:41:17;2.35;;;1.80;;
19877;SDS011;10101;52.204;9.910;2023-08-12T12:43:44;1.98;;;1.80;;
19877;SDS011;10101;52.204;9.910;2023-08-12T12:46:12;6.72;;;2.75;;
19877;SDS011;10101;52.204;9.910;2023-08-12T12:48:39;2.45;;;2.20;;
19877;SDS011;10101;52.204;9.910;2023-08-12T12:51:06;2.13;;;1.90;;
19877;SDS011;10101;52.204;9.910;2023-08-12T12:53:33;2.38;;;1.80;;
19877;SDS011;10101;52.204;9.910;2023-08-12T12:56:00;3.47;;;2.17;;
19877;SDS011;10101;52.204;9.910;2023-08-12T12:58:28;2.63;;;2.13;;
19877;SDS011;10101;52.204;9.910;2023-08-12T13:00:56;1.90;;;1.70;;
19877;SDS011;10101;52.204;9.910;2023-08-12T13:03:25;3.15;;;2.10;;
19877;SDS011;10101;52.204;9.910;2023-08-12T13:05:51;4.07;;;2.35;;
19877;SDS011;10101;52.204;9.910;2023-08-12T13:08:18;6.57;;;3.63;;
19877;SDS011;10101;52.204;9.910;2023-08-12T13:10:45;9.25;;;4.80;;
19877;SDS011;10101;52.204;9.910;2023-08-12T13:13:12;6.53;;;4.00;;
19877;SDS011;10101;52.204;9.910;2023-08-12T13:15:40;3.75;;;2.70;;
19877;SDS011;10101;52.204;9.910;2023-08-12T13:18:07;4.03;;;2.00;;
19877;SDS011;10101;52.204;9.910;2023-08-12T13:20:35;2.95;;;1.70;;
19877;SDS011;10101;52.204;9.910;2023-08-12T13:23:03;2.20;;;1.98;;
19877;SDS011;10101;52.204;9.910;2023-08-12T13:25:30;1.73;;;1.42;;
19877;SDS011;10101;52.204;9.910;2023-08-12T13:27:58;1.73;;;1.30;;
19877;SDS011;10101;52.204;9.910;2023-08-12T13:30:25;2.65;;;1.40;;
19877;SDS011;10101;52.204;9.910;2023-08-12T13:32:52;2.13;;;1.27;;
19877;SDS011;10101;52.204;9.910;2023-08-12T13:35:19;3.28;;;1.38;;
19877;SDS011;10101;52.204;9.910;2023-08-12T13:37:48;2.50;;;1.35;;
19877;SDS011;10101;52.204;9.910;2023-08-12T13:40:15;1.27;;;1.17;;
19877;SDS011;10101;52.204;9.910;2023-08-12T13:42:41;2.25;;;1.25;;
19877;SDS011;10101;52.204;9.910;2023-08-12T13:45:09;3.15;;;1.40;;
19877;SDS011;10101;52.204;9.910;2023-08-12T13:47:37;1.48;;;1.38;;
19877;SDS011;10101;52.204;9.910;2023-08-12T13:50:04;1.38;;;1.17;;
19877;SDS011;10101;52.204;9.910;2023-08-12T13:52:32;2.70;;;1.65;;
19877;SDS011;10101;52.204;9.910;2023-08-12T13:55:00;2.13;;;1.33;;
19877;SDS011;10101;52.204;9.910;2023-08-12T13:57:27;1.55;;;1.20;;
19877;SDS011;10101;52.204;9.910;2023-08-12T13:59:54;1.92;;;1.52;;
19877;SDS011;10101;52.204;9.910;2023-08-12T14:02:21;4.63;;;1.20;;
19877;SDS011;10101;52.204;9.910;2023-08-12T14:04:48;1.20;;;1.10;;
19877;SDS011;10101;52.204;9.910;2023-08-12T14:07:15;1.85;;;1.30;;
19877;SDS011;10101;52.204;9.910;2023-08-12T14:09:45;1.92;;;1.23;;
19877;SDS011;10101;52.204;9.910;2023-08-12T14:12:13;2.60;;;1.30;;
19877;SDS011;10101;52.204;9.910;2023-08-12T14:14:40;1.73;;;1.23;;
19877;SDS011;10101;52.204;9.910;2023-08-12T14:17:07;1.77;;;1.23;;
19877;SDS011;10101;52.204;9.910;2023-08-12T14:19:38;2.58;;;1.27;;
19877;SDS011;10101;52.204;9.910;2023-08-12T14:22:05;2.22;;;1.40;;
19877;SDS011;10101;52.204;9.910;2023-08-12T14:24:32;1.30;;;1.20;;
19877;SDS011;10101;52.204;9.910;2023-08-12T14:26:58;2.67;;;1.00;;
19877;SDS011;10101;52.204;9.910;2023-08-12T14:29:26;1.20;;;1.05;;
19877;SDS011;10101;52.204;9.910;2023-08-12T14:31:53;1.77;;;1.10;;
19877;SDS011;10101;52.204;9.910;2023-08-12T14:34:20;2.50;;;1.10;;
19877;SDS011;10101;52.204;9.910;2023-08-12T14:36:47;1.63;;;1.10;;
19877;SDS011;10101;52.204;9.910;2023-08-12T14:39:13;1.63;;;1.10;;
19877;SDS011;10101;52.204;9.910;2023-08-12T14:41:40;2.95;;;1.20;;
19877;SDS011;10101;52.204;9.910;2023-08-12T14:44:07;1.13;;;0.93;;
19877;SDS011;10101;52.204;9.910;2023-08-12T14:46:35;1.50;;;1.23;;
19877;SDS011;10101;52.204;9.910;2023-08-12T14:49:01;2.05;;;1.30;;
19877;SDS011;10101;52.204;9.910;2023-08-12T14:51:29;1.23;;;1.02;;
19877;SDS011;10101;52.204;9.910;2023-08-12T14:53:56;1.33;;;0.90;;